createdAt,value
2018-03-02T00:00:23.626Z,27.00
2018-03-02T00:01:23.603Z,27.00
2018-03-02T00:02:23.590Z,24.90
2018-03-02T00:03:23.559Z,25.00
2018-03-02T00:04:23.534Z,27.30
2018-03-02T00:05:23.508Z,24.90
2018-03-02T00:06:23.489Z,26.00
2018-03-02T00:07:23.484Z,24.90
2018-03-02T00:08:23.443Z,23.80
2018-03-02T00:09:23.421Z,26.30
2018-03-02T00:10:23.395Z,27.50
2018-03-02T00:11:23.374Z,26.70
2018-03-02T00:12:23.351Z,26.10
2018-03-02T00:13:23.360Z,25.20
2018-03-02T00:14:23.308Z,27.10
2018-03-02T00:15:23.281Z,24.90
2018-03-02T00:16:23.352Z,24.30
2018-03-02T00:17:23.236Z,24.90
2018-03-02T00:18:23.218Z,26.20
2018-03-02T00:19:23.207Z,26.00
2018-03-02T00:20:23.169Z,28.70
2018-03-02T00:21:23.149Z,27.20
2018-03-02T00:22:23.129Z,27.10
2018-03-02T00:23:23.098Z,26.00
2018-03-02T00:24:23.093Z,27.20
2018-03-02T00:25:23.056Z,26.70
2018-03-02T00:26:23.028Z,26.30
2018-03-02T00:27:23.013Z,26.00
2018-03-02T00:28:23.002Z,27.10
2018-03-02T00:29:22.962Z,27.10
2018-03-02T00:30:22.939Z,27.20
2018-03-02T00:31:22.919Z,24.90
2018-03-02T00:32:22.898Z,25.60
2018-03-02T00:33:22.870Z,25.00
2018-03-02T00:34:22.863Z,25.90
2018-03-02T00:35:22.823Z,27.10
2018-03-02T00:36:22.805Z,26.50
2018-03-02T00:37:22.780Z,28.50
2018-03-02T00:38:22.753Z,25.60
2018-03-02T00:39:22.733Z,26.10
2018-03-02T00:40:22.724Z,26.20
2018-03-02T00:41:22.688Z,27.80
2018-03-02T00:42:22.666Z,25.60
2018-03-02T00:43:22.645Z,27.70
2018-03-02T00:44:22.643Z,25.50
2018-03-02T00:45:22.591Z,27.60
2018-03-02T00:46:22.588Z,25.90
2018-03-02T00:47:22.550Z,27.60
2018-03-02T00:48:22.524Z,27.90
2018-03-02T00:49:22.498Z,25.30
2018-03-02T00:50:22.476Z,26.90
2018-03-02T00:51:22.473Z,26.50
2018-03-02T00:52:22.431Z,27.10
2018-03-02T00:53:22.410Z,26.30
2018-03-02T00:54:22.389Z,26.30
2018-03-02T00:55:22.367Z,24.60
2018-03-02T00:56:22.341Z,25.70
2018-03-02T00:57:22.333Z,25.90
2018-03-02T00:58:22.294Z,28.10
2018-03-02T00:59:22.271Z,27.70
2018-03-02T01:00:22.250Z,26.70
2018-03-02T01:01:22.232Z,27.40
2018-03-02T01:02:22.202Z,30.20
2018-03-02T01:03:22.198Z,29.10
2018-03-02T01:04:22.156Z,29.20
2018-03-02T01:05:22.132Z,28.80
2018-03-02T01:06:22.113Z,27.70
2018-03-02T01:07:22.086Z,27.10
2018-03-02T01:08:22.084Z,25.90
2018-03-02T01:09:22.041Z,28.10
2018-03-02T01:10:22.017Z,28.50
2018-03-02T01:11:21.994Z,29.00
2018-03-02T01:12:21.972Z,27.50
2018-03-02T01:13:21.963Z,26.80
2018-03-02T01:14:21.937Z,30.50
2018-03-02T01:15:21.902Z,24.90
2018-03-02T01:16:21.879Z,30.20
2018-03-02T01:17:21.860Z,28.00
2018-03-02T01:18:21.835Z,27.20
2018-03-02T01:19:21.825Z,26.90
2018-03-02T01:20:21.797Z,25.50
2018-03-02T01:21:21.764Z,27.30
2018-03-02T01:22:21.743Z,29.00
2018-03-02T01:23:21.722Z,29.90
2018-03-02T01:24:21.695Z,28.20
2018-03-02T01:25:21.702Z,26.80
2018-03-02T01:26:21.647Z,29.10
2018-03-02T01:27:21.627Z,25.90
2018-03-02T01:28:21.608Z,26.40
2018-03-02T01:29:21.578Z,28.30
2018-03-02T01:30:21.555Z,28.20
2018-03-02T01:31:21.563Z,27.40
2018-03-02T01:32:21.512Z,27.50
2018-03-02T01:33:21.487Z,27.00
2018-03-02T01:34:21.472Z,28.10
2018-03-02T01:35:21.440Z,27.20
2018-03-02T01:36:21.417Z,26.40
2018-03-02T01:37:21.414Z,28.50
2018-03-02T01:38:21.371Z,29.50
2018-03-02T01:39:21.349Z,28.80
2018-03-02T01:40:22.292Z,28.10
2018-03-02T01:41:21.300Z,27.00
2018-03-02T01:42:21.287Z,27.70
2018-03-02T01:43:21.253Z,28.20
2018-03-02T01:44:21.231Z,28.60
2018-03-02T01:45:21.212Z,29.20
2018-03-02T01:46:21.204Z,28.90
2018-03-02T01:47:21.165Z,27.60
2018-03-02T01:48:21.140Z,27.20
2018-03-02T01:49:21.127Z,30.60
2018-03-02T01:50:21.092Z,28.60
2018-03-02T01:51:21.070Z,29.20
2018-03-02T01:52:21.067Z,27.80
2018-03-02T01:53:21.038Z,29.20
2018-03-02T01:54:21.001Z,27.70
2018-03-02T01:55:20.977Z,28.60
2018-03-02T01:56:20.955Z,29.70
2018-03-02T01:57:20.946Z,29.80
2018-03-02T01:58:20.927Z,29.50
2018-03-02T01:59:20.886Z,28.60
2018-03-02T02:00:20.872Z,28.30
2018-03-02T02:01:20.838Z,30.60
2018-03-02T02:02:20.818Z,28.40
2018-03-02T02:03:20.808Z,28.30
2018-03-02T02:04:41.781Z,31.30
2018-03-02T02:05:20.752Z,30.30
2018-03-02T02:06:20.727Z,28.40
2018-03-02T02:07:20.698Z,29.40
2018-03-02T02:08:20.676Z,30.30
2018-03-02T02:09:20.654Z,28.30
2018-03-02T02:10:20.647Z,30.60
2018-03-02T02:11:20.609Z,29.80
2018-03-02T02:12:20.586Z,28.30
2018-03-02T02:13:20.560Z,29.10
2018-03-02T02:14:20.545Z,32.50
2018-03-02T02:15:20.515Z,28.60
2018-03-02T02:16:20.522Z,30.40
2018-03-02T02:17:20.470Z,30.30
2018-03-02T02:18:20.446Z,30.60
2018-03-02T02:19:20.467Z,30.20
2018-03-02T02:20:20.401Z,28.90
2018-03-02T02:21:20.391Z,28.30
2018-03-02T02:22:20.352Z,30.00
2018-03-02T02:23:20.338Z,29.40
2018-03-02T02:24:20.306Z,32.20
2018-03-02T02:25:20.284Z,29.10
2018-03-02T02:26:20.295Z,29.70
2018-03-02T02:27:20.237Z,29.30
2018-03-02T02:28:20.211Z,29.50
2018-03-02T02:29:20.190Z,31.30
2018-03-02T02:30:20.169Z,30.30
2018-03-02T02:31:20.144Z,31.40
2018-03-02T02:32:20.149Z,30.50
2018-03-02T02:33:20.104Z,30.20
2018-03-02T02:34:20.074Z,30.80
2018-03-02T02:35:20.056Z,31.10
2018-03-02T02:36:20.051Z,29.40
2018-03-02T02:37:20.005Z,29.30
2018-03-02T02:38:19.982Z,29.60
2018-03-02T02:39:19.960Z,35.30
2018-03-02T02:40:19.941Z,28.70
2018-03-02T02:41:19.912Z,30.00
2018-03-02T02:42:19.907Z,30.10
2018-03-02T02:43:19.866Z,29.30
2018-03-02T02:44:19.865Z,30.90
2018-03-02T02:45:19.826Z,30.10
2018-03-02T02:46:19.794Z,30.50
2018-03-02T02:47:19.788Z,32.80
2018-03-02T02:48:19.749Z,29.70
2018-03-02T02:49:19.743Z,30.10
2018-03-02T02:50:19.703Z,29.30
2018-03-02T02:51:19.680Z,31.10
2018-03-02T02:52:19.657Z,30.70
2018-03-02T02:53:19.638Z,31.60
2018-03-02T02:54:19.614Z,28.80
2018-03-02T02:55:19.602Z,30.00
2018-03-02T02:56:19.561Z,32.40
2018-03-02T02:57:19.542Z,29.80
2018-03-02T02:58:19.520Z,29.90
2018-03-02T02:59:19.501Z,33.80
2018-03-02T03:00:19.486Z,29.30
2018-03-02T03:01:19.462Z,31.60
2018-03-02T03:02:19.421Z,31.20
2018-03-02T03:03:19.406Z,31.80
2018-03-02T03:04:19.381Z,29.20
2018-03-02T03:05:19.370Z,31.60
2018-03-02T03:06:19.360Z,31.90
2018-03-02T03:07:19.310Z,33.20
2018-03-02T03:08:19.286Z,30.70
2018-03-02T03:09:19.262Z,30.80
2018-03-02T03:10:19.241Z,32.40
2018-03-02T03:11:19.234Z,31.50
2018-03-02T03:12:19.192Z,32.10
2018-03-02T03:13:19.169Z,33.20
2018-03-02T03:14:19.146Z,32.80
2018-03-02T03:15:19.120Z,30.90
2018-03-02T03:16:19.099Z,32.20
2018-03-02T03:17:19.096Z,32.70
2018-03-02T03:18:19.103Z,33.20
2018-03-02T03:19:19.028Z,30.90
2018-03-02T03:20:19.007Z,33.60
2018-03-02T03:21:19.010Z,33.50
2018-03-02T03:22:18.958Z,34.90
2018-03-02T03:23:18.942Z,33.20
2018-03-02T03:24:18.914Z,33.20
2018-03-02T03:25:18.892Z,33.70
2018-03-02T03:26:18.869Z,33.10
2018-03-02T03:27:18.860Z,32.50
2018-03-02T03:28:18.821Z,30.80
2018-03-02T03:29:18.797Z,31.90
2018-03-02T03:30:18.774Z,34.20
2018-03-02T03:31:18.756Z,34.10
2018-03-02T03:32:18.746Z,32.20
2018-03-02T03:33:18.705Z,33.10
2018-03-02T03:34:18.678Z,33.20
2018-03-02T03:35:18.657Z,33.20
2018-03-02T03:36:18.632Z,34.10
2018-03-02T03:37:18.644Z,33.70
2018-03-02T03:38:18.586Z,31.90
2018-03-02T03:39:18.564Z,33.60
2018-03-02T03:40:18.541Z,33.80
2018-03-02T03:41:18.512Z,34.70
2018-03-02T03:42:18.513Z,33.80
2018-03-02T03:43:18.468Z,33.90
2018-03-02T03:44:18.447Z,35.20
2018-03-02T03:45:18.428Z,31.50
2018-03-02T03:46:18.398Z,32.90
2018-03-02T03:47:18.388Z,30.30
2018-03-02T03:48:18.366Z,33.90
2018-03-02T03:49:18.328Z,33.40
2018-03-02T03:50:18.305Z,33.20
2018-03-02T03:51:18.323Z,33.50
2018-03-02T03:52:18.258Z,33.00
2018-03-02T03:53:18.252Z,34.50
2018-03-02T03:54:18.209Z,32.50
2018-03-02T03:55:18.187Z,33.60
2018-03-02T03:56:18.169Z,34.40
2018-03-02T03:57:18.149Z,33.10
2018-03-02T03:58:18.134Z,33.30
2018-03-02T03:59:18.096Z,31.10
2018-03-02T04:00:18.068Z,33.70
2018-03-02T04:01:18.045Z,34.30
2018-03-02T04:02:18.026Z,33.40
2018-03-02T04:03:17.999Z,33.40
2018-03-02T04:04:17.992Z,34.00
2018-03-02T04:05:17.954Z,36.30
2018-03-02T04:06:17.927Z,32.40
2018-03-02T04:07:17.909Z,33.50
2018-03-02T04:08:17.886Z,33.40
2018-03-02T04:09:17.878Z,33.30
2018-03-02T04:10:17.834Z,32.70
2018-03-02T04:11:17.811Z,34.20
2018-03-02T04:12:17.788Z,34.00
2018-03-02T04:13:17.767Z,36.10
2018-03-02T04:14:17.775Z,33.60
2018-03-02T04:15:17.722Z,32.40
2018-03-02T04:16:17.698Z,33.80
2018-03-02T04:17:17.671Z,35.00
2018-03-02T04:18:17.647Z,34.30
2018-03-02T04:19:17.622Z,35.40
2018-03-02T04:20:17.616Z,35.30
2018-03-02T04:21:17.578Z,33.40
2018-03-02T04:22:17.550Z,36.60
2018-03-02T04:23:17.576Z,33.10
2018-03-02T04:24:17.507Z,33.20
2018-03-02T04:25:17.485Z,32.60
2018-03-02T04:26:17.476Z,32.80
2018-03-02T04:27:17.434Z,37.90
2018-03-02T04:28:17.437Z,34.40
2018-03-02T04:29:17.387Z,35.60
2018-03-02T04:30:17.364Z,35.00
2018-03-02T04:31:17.354Z,34.20
2018-03-02T04:32:17.330Z,35.20
2018-03-02T04:33:17.291Z,34.80
2018-03-02T04:34:17.268Z,35.10
2018-03-02T04:35:17.247Z,34.40
2018-03-02T04:36:17.234Z,35.30
2018-03-02T04:37:17.217Z,32.40
2018-03-02T04:38:17.189Z,36.80
2018-03-02T04:39:17.154Z,36.00
2018-03-02T04:40:17.129Z,36.10
2018-03-02T04:41:17.105Z,35.50
2018-03-02T04:42:17.077Z,34.00
2018-03-02T04:43:17.073Z,32.90
2018-03-02T04:44:17.036Z,34.00
2018-03-02T04:45:17.006Z,33.90
2018-03-02T04:46:16.987Z,35.40
2018-03-02T04:47:16.965Z,36.00
2018-03-02T04:48:16.944Z,35.10
2018-03-02T04:49:16.950Z,37.80
2018-03-02T04:50:16.893Z,36.40
2018-03-02T04:51:16.871Z,36.90
2018-03-02T04:52:16.850Z,36.50
2018-03-02T04:53:16.822Z,35.70
2018-03-02T04:54:16.797Z,36.30
2018-03-02T04:55:16.790Z,36.00
2018-03-02T04:56:16.753Z,36.20
2018-03-02T04:57:16.726Z,36.40
2018-03-02T04:58:16.702Z,35.80
2018-03-02T04:59:16.680Z,34.00
2018-03-02T05:00:16.672Z,37.10
2018-03-02T05:01:16.635Z,36.50
2018-03-02T05:02:16.604Z,35.30
2018-03-02T05:03:16.587Z,37.50
2018-03-02T05:04:16.561Z,35.60
2018-03-02T05:05:16.550Z,35.40
2018-03-02T05:06:16.531Z,35.80
2018-03-02T05:07:16.493Z,36.20
2018-03-02T05:08:16.467Z,39.50
2018-03-02T05:09:16.442Z,36.00
2018-03-02T05:10:16.420Z,36.70
2018-03-02T05:11:16.397Z,36.70
2018-03-02T05:12:16.392Z,36.60
2018-03-02T05:13:16.348Z,34.90
2018-03-02T05:14:16.324Z,38.90
2018-03-02T05:15:16.302Z,35.00
2018-03-02T05:16:16.277Z,39.90
2018-03-02T05:17:16.271Z,38.50
2018-03-02T05:18:16.229Z,37.20
2018-03-02T05:19:16.211Z,37.50
2018-03-02T05:20:16.187Z,37.50
2018-03-02T05:21:16.174Z,35.10
2018-03-02T05:22:16.134Z,40.30
2018-03-02T05:23:16.114Z,35.70
2018-03-02T05:24:16.092Z,35.40
2018-03-02T05:25:16.066Z,38.80
2018-03-02T05:26:16.040Z,36.60
2018-03-02T05:27:16.034Z,39.00
2018-03-02T05:28:15.991Z,37.70
2018-03-02T05:29:15.977Z,36.50
2018-03-02T05:30:15.945Z,35.10
2018-03-02T05:31:15.942Z,39.20
2018-03-02T05:32:15.898Z,39.00
2018-03-02T05:33:15.873Z,38.10
2018-03-02T05:34:15.852Z,34.70
2018-03-02T05:35:15.826Z,37.00
2018-03-02T05:36:15.808Z,37.20
2018-03-02T05:37:15.798Z,35.60
2018-03-02T05:38:15.755Z,35.90
2018-03-02T05:39:15.729Z,37.40
2018-03-02T05:40:15.709Z,37.00
2018-03-02T05:41:15.704Z,38.80
2018-03-02T05:42:15.665Z,40.00
2018-03-02T05:43:15.658Z,38.00
2018-03-02T05:44:15.617Z,38.80
2018-03-02T05:45:16.317Z,37.40
2018-03-02T05:46:15.589Z,34.80
2018-03-02T05:47:15.543Z,40.40
2018-03-02T05:48:15.522Z,39.40
2018-03-02T05:49:15.520Z,37.30
2018-03-02T05:50:15.482Z,39.90
2018-03-02T05:51:15.450Z,39.40
2018-03-02T05:52:15.436Z,39.60
2018-03-02T05:53:15.403Z,36.20
2018-03-02T05:54:15.378Z,38.40
2018-03-02T05:55:15.391Z,39.10
2018-03-02T05:56:15.368Z,38.90
2018-03-02T05:57:15.326Z,41.50
2018-03-02T05:58:15.831Z,41.30
2018-03-02T05:59:15.274Z,40.50
2018-03-02T06:00:15.256Z,35.80
2018-03-02T06:01:15.210Z,38.60
2018-03-02T06:02:15.189Z,37.20
2018-03-02T06:03:15.163Z,38.60
2018-03-02T06:04:15.155Z,38.50
2018-03-02T06:05:15.110Z,37.80
2018-03-02T06:06:15.097Z,40.00
2018-03-02T06:07:15.067Z,40.40
2018-03-02T06:08:15.048Z,36.70
2018-03-02T06:09:15.035Z,39.70
2018-03-02T06:10:15.032Z,37.60
2018-03-02T06:11:14.976Z,37.40
2018-03-02T06:12:14.957Z,39.00
2018-03-02T06:13:14.963Z,38.00
2018-03-02T06:14:14.906Z,39.60
2018-03-02T06:15:14.920Z,39.70
2018-03-02T06:16:14.859Z,37.70
2018-03-02T06:17:14.832Z,37.30
2018-03-02T06:18:14.809Z,38.40
2018-03-02T06:19:14.795Z,40.20
2018-03-02T06:20:14.762Z,43.50
2018-03-02T06:21:14.762Z,38.90
2018-03-02T06:22:14.714Z,38.60
2018-03-02T06:23:14.692Z,39.70
2018-03-02T06:24:14.666Z,39.50
2018-03-02T06:25:14.655Z,40.40
2018-03-02T06:26:14.629Z,42.90
2018-03-02T06:27:14.613Z,41.50
2018-03-02T06:28:14.585Z,39.90
2018-03-02T06:29:14.551Z,41.20
2018-03-02T06:30:14.531Z,41.30
2018-03-02T06:31:14.504Z,39.50
2018-03-02T06:32:14.516Z,41.10
2018-03-02T06:33:14.455Z,41.00
2018-03-02T06:34:14.439Z,42.20
2018-03-02T06:35:14.412Z,41.60
2018-03-02T06:36:14.390Z,41.50
2018-03-02T06:37:14.367Z,39.70
2018-03-02T06:38:14.357Z,44.30
2018-03-02T06:39:14.321Z,41.50
2018-03-02T06:40:14.337Z,41.40
2018-03-02T06:41:14.269Z,41.70
2018-03-02T06:42:14.239Z,41.40
2018-03-02T06:43:14.239Z,40.40
2018-03-02T06:44:14.197Z,42.10
2018-03-02T06:45:14.172Z,40.80
2018-03-02T06:46:14.156Z,41.60
2018-03-02T06:47:14.129Z,40.20
2018-03-02T06:48:14.129Z,42.30
2018-03-02T06:49:14.076Z,39.40
2018-03-02T06:50:14.081Z,45.80
2018-03-02T06:51:14.037Z,45.20
2018-03-02T06:52:14.009Z,44.10
2018-03-02T06:53:14.040Z,41.70
2018-03-02T06:54:13.981Z,41.40
2018-03-02T06:55:13.942Z,41.10
2018-03-02T06:56:13.919Z,40.80
2018-03-02T06:57:13.890Z,40.20
2018-03-02T06:58:13.907Z,42.60
2018-03-02T06:59:13.848Z,42.00
2018-03-02T07:00:13.829Z,41.30
2018-03-02T07:01:13.804Z,41.50
2018-03-02T07:02:13.776Z,41.00
2018-03-02T07:03:13.752Z,43.10
2018-03-02T07:04:13.766Z,43.70
2018-03-02T07:05:13.707Z,41.70
2018-03-02T07:06:13.679Z,41.30
2018-03-02T07:07:13.660Z,43.30
2018-03-02T07:08:13.666Z,42.40
2018-03-02T07:09:13.631Z,42.50
2018-03-02T07:10:13.611Z,40.10
2018-03-02T07:11:13.568Z,39.60
2018-03-02T07:12:13.548Z,43.40
2018-03-02T07:13:13.515Z,40.10
2018-03-02T07:14:13.522Z,43.90
2018-03-02T07:15:13.473Z,44.30
2018-03-02T07:16:13.446Z,41.90
2018-03-02T07:17:13.443Z,44.70
2018-03-02T07:18:13.405Z,40.80
2018-03-02T07:19:13.379Z,43.30
2018-03-02T07:20:13.369Z,42.80
2018-03-02T07:21:13.337Z,44.50
2018-03-02T07:22:13.309Z,41.30
2018-03-02T07:23:13.283Z,42.00
2018-03-02T07:24:13.279Z,42.50
2018-03-02T07:25:13.289Z,39.50
2018-03-02T07:26:13.213Z,43.70
2018-03-02T07:27:13.190Z,44.00
2018-03-02T07:28:13.171Z,43.10
2018-03-02T07:29:13.149Z,45.10
2018-03-02T07:30:13.117Z,41.70
2018-03-02T07:31:13.115Z,43.50
2018-03-02T07:32:13.121Z,41.40
2018-03-02T07:33:13.067Z,44.00
2018-03-02T07:34:13.031Z,40.80
2018-03-02T07:35:13.005Z,44.60
2018-03-02T07:36:12.990Z,42.80
2018-03-02T07:37:12.958Z,40.00
2018-03-02T07:38:12.959Z,43.80
2018-03-02T07:39:12.910Z,43.70
2018-03-02T07:40:12.897Z,40.80
2018-03-02T07:41:12.864Z,41.30
2018-03-02T07:42:33.860Z,45.70
2018-03-02T07:43:12.825Z,42.70
2018-03-02T07:44:12.830Z,41.40
2018-03-02T07:45:12.779Z,40.90
2018-03-02T07:46:12.750Z,45.70
2018-03-02T07:47:12.740Z,44.20
2018-03-02T07:48:12.723Z,43.10
2018-03-02T07:49:12.685Z,43.40
2018-03-02T07:50:12.661Z,42.80
2018-03-02T07:51:12.633Z,44.70
2018-03-02T07:52:12.620Z,44.30
2018-03-02T07:53:12.610Z,43.70
2018-03-02T07:54:12.571Z,42.70
2018-03-02T07:55:12.548Z,41.30
2018-03-02T07:56:12.522Z,44.30
2018-03-02T07:57:12.502Z,43.10
2018-03-02T07:58:12.485Z,41.60
2018-03-02T07:59:12.453Z,43.80
2018-03-02T08:00:12.447Z,46.20
2018-03-02T08:01:12.409Z,42.90
2018-03-02T08:02:12.399Z,46.20
2018-03-02T08:03:12.366Z,44.10
2018-03-02T08:04:12.356Z,43.20
2018-03-02T08:05:12.318Z,45.80
2018-03-02T08:06:12.292Z,42.40
2018-03-02T08:07:12.271Z,44.40
2018-03-02T08:08:12.251Z,44.60
2018-03-02T08:09:12.251Z,42.20
2018-03-02T08:10:12.210Z,43.00
2018-03-02T08:11:12.181Z,44.10
2018-03-02T08:12:12.164Z,41.50
2018-03-02T08:13:12.128Z,42.10
2018-03-02T08:14:12.107Z,45.70
2018-03-02T08:15:12.112Z,45.90
2018-03-02T08:16:12.070Z,42.90
2018-03-02T08:17:12.042Z,45.10
2018-03-02T08:18:12.026Z,41.10
2018-03-02T08:19:11.995Z,44.60
2018-03-02T08:20:11.975Z,45.70
2018-03-02T08:21:11.966Z,44.60
2018-03-02T08:22:11.924Z,47.70
2018-03-02T08:23:11.908Z,45.30
2018-03-02T08:24:11.880Z,47.30
2018-03-02T08:25:11.858Z,42.60
2018-03-02T08:26:11.867Z,45.00
2018-03-02T08:27:11.817Z,42.60
2018-03-02T08:28:11.791Z,44.60
2018-03-02T08:29:11.759Z,45.70
2018-03-02T08:30:11.745Z,44.50
2018-03-02T08:31:11.733Z,45.90
2018-03-02T08:32:11.699Z,45.10
2018-03-02T08:33:11.677Z,45.40
2018-03-02T08:34:11.653Z,45.00
2018-03-02T08:35:11.647Z,43.50
2018-03-02T08:36:11.613Z,44.40
2018-03-02T08:37:11.605Z,45.50
2018-03-02T08:38:11.564Z,44.40
2018-03-02T08:39:11.541Z,43.70
2018-03-02T08:40:11.526Z,47.00
2018-03-02T08:41:11.496Z,45.20
2018-03-02T08:42:11.494Z,44.20
2018-03-02T08:43:11.455Z,50.90
2018-03-02T08:44:11.440Z,45.20
2018-03-02T08:45:11.422Z,50.20
2018-03-02T08:46:11.398Z,48.10
2018-03-02T08:47:11.377Z,45.60
2018-03-02T08:48:11.331Z,44.10
2018-03-02T08:49:11.325Z,44.90
2018-03-02T08:50:11.333Z,45.90
2018-03-02T08:51:11.288Z,47.30
2018-03-02T08:52:11.251Z,44.20
2018-03-02T08:53:11.237Z,44.30
2018-03-02T08:54:11.204Z,45.70
2018-03-02T08:55:11.182Z,44.20
2018-03-02T08:56:11.173Z,42.30
2018-03-02T08:57:11.136Z,43.00
2018-03-02T08:58:11.110Z,41.80
2018-03-02T08:59:11.092Z,42.70
2018-03-02T09:00:11.072Z,44.90
2018-03-02T09:01:11.047Z,43.30
2018-03-02T09:02:11.056Z,42.90
2018-03-02T09:03:11.054Z,44.70
2018-03-02T09:04:10.986Z,46.20
2018-03-02T09:05:10.977Z,44.90
2018-03-02T09:06:10.938Z,44.90
2018-03-02T09:07:10.932Z,43.00
2018-03-02T09:08:10.908Z,42.70
2018-03-02T09:09:10.903Z,43.00
2018-03-02T09:10:10.849Z,43.00
2018-03-02T09:11:10.828Z,46.30
2018-03-02T09:12:10.804Z,42.30
2018-03-02T09:13:11.290Z,44.50
2018-03-02T09:14:10.790Z,42.70
2018-03-02T09:15:10.735Z,46.00
2018-03-02T09:16:10.722Z,42.20
2018-03-02T09:17:10.694Z,41.70
2018-03-02T09:18:10.671Z,44.20
2018-03-02T09:19:10.654Z,45.70
2018-03-02T09:20:10.655Z,43.30
2018-03-02T09:21:10.608Z,43.90
2018-03-02T09:22:10.581Z,42.90
2018-03-02T09:23:10.559Z,42.10
2018-03-02T09:24:10.542Z,47.00
2018-03-02T09:25:10.537Z,43.70
2018-03-02T09:26:10.508Z,40.90
2018-03-02T09:27:10.500Z,43.30
2018-03-02T09:28:10.452Z,43.90
2018-03-02T09:29:10.427Z,44.70
2018-03-02T09:30:10.436Z,43.60
2018-03-02T09:31:10.408Z,41.70
2018-03-02T09:32:10.370Z,41.20
2018-03-02T09:33:10.344Z,43.00
2018-03-02T09:34:10.358Z,43.10
2018-03-02T09:35:10.309Z,46.80
2018-03-02T09:36:10.294Z,43.90
2018-03-02T09:37:10.265Z,44.50
2018-03-02T09:38:10.247Z,45.80
2018-03-02T09:39:10.218Z,43.00
2018-03-02T09:40:10.194Z,44.90
2018-03-02T09:41:10.193Z,45.60
2018-03-02T09:42:10.152Z,42.90
2018-03-02T09:43:10.130Z,44.90
2018-03-02T09:44:10.113Z,45.80
2018-03-02T09:45:10.092Z,44.20
2018-03-02T09:46:10.078Z,44.70
2018-03-02T09:47:10.077Z,46.10
2018-03-02T09:48:10.055Z,43.80
2018-03-02T09:49:09.998Z,45.10
2018-03-02T09:50:09.980Z,43.20
2018-03-02T09:51:09.956Z,45.40
2018-03-02T09:52:09.955Z,43.80
2018-03-02T09:53:09.959Z,43.90
2018-03-02T09:54:09.894Z,42.90
2018-03-02T09:55:09.873Z,45.30
2018-03-02T09:56:09.850Z,40.80
2018-03-02T09:57:09.844Z,48.80
2018-03-02T09:58:09.801Z,43.90
2018-03-02T09:59:09.796Z,43.90
2018-03-02T10:00:09.764Z,40.10
2018-03-02T10:01:09.749Z,44.10
2018-03-02T10:02:09.719Z,43.10
2018-03-02T10:03:09.716Z,45.10
2018-03-02T10:04:09.677Z,43.90
2018-03-02T10:05:09.668Z,43.30
2018-03-02T10:06:09.656Z,42.90
2018-03-02T10:07:09.607Z,44.20
2018-03-02T10:08:09.610Z,43.60
2018-03-02T10:09:09.565Z,43.90
2018-03-02T10:10:09.546Z,41.30
2018-03-02T10:11:09.541Z,42.10
2018-03-02T10:12:09.550Z,45.90
2018-03-02T10:13:09.482Z,43.60
2018-03-02T10:14:09.483Z,42.30
2018-03-02T10:15:09.458Z,45.00
2018-03-02T10:16:09.417Z,43.90
2018-03-02T10:17:09.397Z,46.70
2018-03-02T10:18:09.372Z,43.70
2018-03-02T10:19:09.356Z,41.80
2018-03-02T10:20:09.352Z,40.00
2018-03-02T10:21:09.312Z,42.80
2018-03-02T10:22:09.287Z,41.90
2018-03-02T10:23:09.268Z,42.00
2018-03-02T10:24:09.246Z,44.40
2018-03-02T10:25:09.225Z,43.40
2018-03-02T10:26:09.225Z,42.00
2018-03-02T10:27:09.182Z,41.80
2018-03-02T10:28:09.171Z,42.10
2018-03-02T10:29:09.136Z,43.00
2018-03-02T10:30:09.123Z,42.80
2018-03-02T10:31:09.115Z,43.00
2018-03-02T10:32:09.079Z,41.70
2018-03-02T10:33:09.061Z,40.50
2018-03-02T10:34:09.032Z,43.20
2018-03-02T10:35:09.018Z,43.80
2018-03-02T10:36:09.009Z,43.20
2018-03-02T10:37:09.001Z,44.80
2018-03-02T10:38:08.958Z,43.70
2018-03-02T10:39:08.930Z,46.60
2018-03-02T10:40:08.917Z,43.40
2018-03-02T10:41:08.896Z,40.90
2018-03-02T10:42:08.885Z,41.80
2018-03-02T10:43:08.854Z,43.20
2018-03-02T10:44:08.821Z,42.20
2018-03-02T10:45:08.808Z,42.70
2018-03-02T10:46:08.799Z,44.60
2018-03-02T10:47:08.795Z,41.20
2018-03-02T10:48:08.760Z,42.20
2018-03-02T10:49:08.736Z,45.00
2018-03-02T10:50:08.703Z,43.60
2018-03-02T10:51:08.692Z,43.30
2018-03-02T10:52:08.664Z,44.90
2018-03-02T10:53:08.689Z,44.00
2018-03-02T10:54:08.631Z,46.70
2018-03-02T10:55:08.604Z,42.10
2018-03-02T10:56:08.598Z,43.50
2018-03-02T10:57:08.559Z,40.90
2018-03-02T10:58:08.543Z,43.20
2018-03-02T10:59:08.538Z,43.10
2018-03-02T11:00:08.498Z,42.40
2018-03-02T11:01:08.483Z,43.60
2018-03-02T11:02:08.471Z,46.70
2018-03-02T11:03:08.441Z,43.60
2018-03-02T11:04:08.444Z,43.30
2018-03-02T11:05:08.393Z,46.30
2018-03-02T11:06:08.377Z,44.50
2018-03-02T11:07:08.359Z,43.90
2018-03-02T11:08:08.341Z,42.80
2018-03-02T11:09:08.320Z,42.50
2018-03-02T11:10:08.324Z,43.50
2018-03-02T11:11:08.281Z,43.30
2018-03-02T11:12:08.262Z,44.30
2018-03-02T11:13:08.246Z,42.80
2018-03-02T11:14:08.218Z,44.10
2018-03-02T11:15:08.203Z,44.50
2018-03-02T11:16:08.199Z,44.10
2018-03-02T11:17:08.169Z,43.40
2018-03-02T11:18:08.161Z,44.10
2018-03-02T11:19:08.116Z,45.30
2018-03-02T11:20:08.105Z,44.50
2018-03-02T11:21:08.092Z,42.90
2018-03-02T11:22:08.064Z,44.30
2018-03-02T11:23:08.041Z,45.00
2018-03-02T11:24:08.016Z,43.90
2018-03-02T11:25:08.013Z,44.30
2018-03-02T11:26:07.999Z,44.70
2018-03-02T11:27:08.801Z,42.50
2018-03-02T11:28:07.939Z,43.80
2018-03-02T11:29:07.927Z,42.20
2018-03-02T11:30:07.899Z,44.20
2018-03-02T11:31:07.928Z,45.90
2018-03-02T11:32:07.866Z,43.50
2018-03-02T11:33:07.854Z,46.00
2018-03-02T11:34:07.818Z,44.80
2018-03-02T11:35:07.801Z,43.30
2018-03-02T11:36:07.787Z,44.80
2018-03-02T11:37:07.789Z,44.80
2018-03-02T11:38:07.751Z,44.50
2018-03-02T11:39:07.723Z,44.10
2018-03-02T11:40:07.698Z,42.70
2018-03-02T11:41:07.707Z,42.00
2018-03-02T11:42:07.658Z,42.20
2018-03-02T11:43:07.660Z,46.30
2018-03-02T11:44:07.624Z,45.30
2018-03-02T11:45:07.603Z,46.70
2018-03-02T11:46:07.584Z,44.10
2018-03-02T11:47:07.578Z,44.00
2018-03-02T11:48:07.558Z,42.60
2018-03-02T11:49:07.537Z,43.00
2018-03-02T11:50:07.501Z,43.40
2018-03-02T11:51:07.499Z,43.00
2018-03-02T11:52:07.487Z,45.50
2018-03-02T11:53:07.447Z,45.90
2018-03-02T11:54:07.448Z,43.20
2018-03-02T11:55:07.410Z,44.80
2018-03-02T11:56:07.389Z,44.00
2018-03-02T11:57:07.367Z,44.50
2018-03-02T11:58:07.358Z,44.10
2018-03-02T11:59:07.364Z,43.90
2018-03-02T12:00:07.321Z,42.60
2018-03-02T12:01:07.799Z,43.40
2018-03-02T12:02:07.272Z,42.10
2018-03-02T12:03:07.259Z,45.10
2018-03-02T12:04:07.228Z,41.30
2018-03-02T12:05:07.291Z,44.40
2018-03-02T12:06:07.192Z,43.30
2018-03-02T12:07:07.177Z,43.80
2018-03-02T12:08:07.844Z,42.00
2018-03-02T12:09:07.132Z,44.20
2018-03-02T12:10:07.118Z,42.10
2018-03-02T12:11:07.132Z,42.80
2018-03-02T12:12:07.071Z,43.90
2018-03-02T12:13:07.095Z,42.00
2018-03-02T12:14:07.051Z,42.50
2018-03-02T12:15:07.087Z,42.10
2018-03-02T12:16:07.030Z,43.90
2018-03-02T12:17:07.124Z,41.20
2018-03-02T12:18:06.955Z,44.90
2018-03-02T12:19:06.969Z,45.70
2018-03-02T12:20:06.950Z,42.50
2018-03-02T12:21:06.977Z,42.30
2018-03-02T12:22:06.921Z,47.20
2018-03-02T12:23:06.902Z,44.80
2018-03-02T12:24:06.883Z,44.10
2018-03-02T12:25:06.869Z,42.30
2018-03-02T12:26:06.849Z,43.80
2018-03-02T12:27:06.865Z,43.50
2018-03-02T12:28:06.818Z,46.30
2018-03-02T12:29:06.771Z,42.90
2018-03-02T12:30:06.937Z,45.80
2018-03-02T12:31:06.759Z,41.00
2018-03-02T12:32:06.730Z,45.10
2018-03-02T12:33:06.697Z,42.70
2018-03-02T12:34:06.674Z,42.40
2018-03-02T12:35:06.626Z,45.80
2018-03-02T12:36:06.630Z,44.00
2018-03-02T12:37:06.623Z,42.20
2018-03-02T12:38:06.603Z,44.90
2018-03-02T12:39:06.566Z,43.40
2018-03-02T12:40:06.614Z,44.30
2018-03-02T12:41:06.597Z,43.20
2018-03-02T12:42:06.512Z,43.50
2018-03-02T12:43:07.303Z,44.70
2018-03-02T12:44:06.470Z,40.90
2018-03-02T12:45:06.476Z,42.10
2018-03-02T12:46:06.458Z,44.60
2018-03-02T12:47:06.451Z,44.70
2018-03-02T12:48:06.413Z,43.40
2018-03-02T12:49:06.399Z,43.20
2018-03-02T12:50:06.343Z,42.60
2018-03-02T12:51:06.360Z,43.10
2018-03-02T12:52:06.353Z,43.20